createdAt,value
2022-09-04T00:02:13.535Z,6.53
2022-09-04T00:05:13.514Z,5.57
2022-09-04T00:07:57.413Z,5.03
2022-09-04T00:10:49.314Z,4.03
2022-09-04T00:13:27.726Z,7.70
2022-09-04T00:16:12.849Z,5.10
2022-09-04T00:19:10.397Z,5.28
2022-09-04T00:21:50.656Z,4.93
2022-09-04T00:24:20.242Z,2.90
2022-09-04T00:27:06.155Z,3.13
2022-09-04T00:29:57.112Z,5.50
2022-09-04T00:32:46.388Z,3.65
2022-09-04T00:35:18.532Z,4.13
2022-09-04T00:37:59.186Z,4.68
2022-09-04T00:40:31.518Z,3.77
2022-09-04T00:43:07.228Z,6.30
2022-09-04T00:45:47.664Z,5.43
2022-09-04T00:48:36.367Z,7.13
2022-09-04T00:51:22.149Z,7.18
2022-09-04T00:54:09.592Z,3.08
2022-09-04T00:57:01.672Z,3.50
2022-09-04T01:00:07.923Z,4.78
2022-09-04T01:02:57.640Z,3.17
2022-09-04T01:06:16.730Z,4.72
2022-09-04T01:09:04.565Z,4.45
2022-09-04T01:11:43.566Z,3.85
2022-09-04T01:14:31.468Z,5.68
2022-09-04T01:17:33.038Z,6.32
2022-09-04T01:20:22.523Z,7.93
2022-09-04T01:22:55.919Z,6.90
2022-09-04T01:25:48.195Z,5.68
2022-09-04T01:28:42.832Z,5.75
2022-09-04T01:31:46.499Z,7.88
2022-09-04T01:34:40.555Z,5.95
2022-09-04T01:37:29.086Z,7.00
2022-09-04T01:40:36.585Z,5.68
2022-09-04T01:43:08.269Z,7.80
2022-09-04T01:45:59.320Z,4.82
2022-09-04T01:48:43.157Z,4.77
2022-09-04T01:51:29.964Z,6.07
2022-09-04T01:54:19.697Z,8.80
2022-09-04T01:56:55.822Z,7.22
2022-09-04T01:59:34.316Z,4.88
2022-09-04T02:02:29.616Z,6.50
2022-09-04T02:05:12.557Z,9.95
2022-09-04T02:07:44.775Z,5.60
2022-09-04T02:10:18.372Z,8.35
2022-09-04T02:13:03.662Z,6.57
2022-09-04T02:15:48.335Z,7.50
2022-09-04T02:18:31.569Z,8.48
2022-09-04T02:21:31.721Z,5.57
2022-09-04T02:24:08.670Z,6.00
2022-09-04T02:26:55.269Z,8.63
2022-09-04T02:29:44.331Z,9.15
2022-09-04T02:32:18.711Z,7.82
2022-09-04T02:34:49.380Z,7.38
2022-09-04T02:37:25.805Z,7.63
2022-09-04T02:40:12.224Z,6.70
2022-09-04T02:43:13.231Z,5.72
2022-09-04T02:46:19.490Z,11.25
2022-09-04T02:49:15.365Z,6.22
2022-09-04T02:51:45.934Z,8.02
2022-09-04T02:54:50.814Z,8.82
2022-09-04T02:57:47.882Z,6.88
2022-09-04T03:00:30.983Z,7.88
2022-09-04T03:03:02.976Z,7.43
2022-09-04T03:05:42.288Z,11.50
2022-09-04T03:08:24.319Z,8.65
2022-09-04T03:11:17.216Z,8.93
2022-09-04T03:13:56.824Z,7.97
2022-09-04T03:16:32.478Z,7.65
2022-09-04T03:19:21.839Z,6.80
2022-09-04T03:21:56.149Z,8.90
2022-09-04T03:24:32.498Z,6.15
2022-09-04T03:27:02.429Z,5.10
2022-09-04T03:29:37.821Z,6.82
2022-09-04T03:32:28.618Z,7.45
2022-09-04T03:35:10.706Z,8.18
2022-09-04T03:37:48.476Z,9.43
2022-09-04T03:40:31.308Z,7.35
2022-09-04T03:43:02.711Z,5.70
2022-09-04T03:48:16.374Z,5.90
2022-09-04T03:51:25.886Z,7.32
2022-09-04T03:54:08.717Z,7.65
2022-09-04T03:56:39.216Z,10.30
2022-09-04T03:59:25.487Z,7.35
2022-09-04T04:02:20.795Z,8.13
2022-09-04T04:05:03.529Z,6.57
2022-09-04T04:07:47.296Z,14.85
2022-09-04T04:10:19.729Z,7.70
2022-09-04T04:13:08.617Z,5.97
2022-09-04T04:15:58.191Z,11.00
2022-09-04T04:19:09.079Z,7.32
2022-09-04T04:21:57.857Z,7.03
2022-09-04T04:24:43.793Z,7.93
2022-09-04T04:27:36.178Z,6.45
2022-09-04T04:30:06.828Z,4.75
2022-09-04T04:33:22.338Z,6.32
2022-09-04T04:36:22.240Z,9.10
2022-09-04T04:38:54.251Z,5.82
2022-09-04T04:42:13.556Z,6.47
2022-09-04T04:44:59.555Z,6.65
2022-09-04T04:47:51.946Z,8.10
2022-09-04T04:50:27.461Z,7.20
2022-09-04T04:53:09.845Z,7.40
2022-09-04T04:55:42.393Z,11.77
2022-09-04T04:58:40.625Z,5.68
2022-09-04T05:01:16.648Z,5.55
2022-09-04T05:03:56.375Z,7.00
2022-09-04T05:06:40.981Z,5.28
2022-09-04T05:09:19.132Z,5.88
2022-09-04T05:11:58.263Z,7.45
2022-09-04T05:14:38.116Z,4.47
2022-09-04T05:17:18.178Z,5.78
2022-09-04T05:20:00.157Z,4.82
2022-09-04T05:22:40.956Z,9.90
2022-09-04T05:25:14.000Z,5.20
2022-09-04T05:27:56.747Z,4.50
2022-09-04T05:30:39.536Z,3.28
2022-09-04T05:33:25.773Z,6.80
2022-09-04T05:35:56.402Z,5.35
2022-09-04T05:38:36.359Z,3.37
2022-09-04T05:41:07.965Z,4.97
2022-09-04T05:44:05.795Z,3.45
2022-09-04T05:46:52.408Z,4.55
2022-09-04T05:49:47.521Z,9.52
2022-09-04T05:52:27.103Z,4.47
2022-09-04T05:55:32.066Z,5.43
2022-09-04T05:58:18.521Z,3.63
2022-09-04T06:01:00.609Z,3.95
2022-09-04T06:03:48.055Z,3.33
2022-09-04T06:06:38.096Z,6.15
2022-09-04T06:09:34.533Z,5.22
2022-09-04T06:12:18.718Z,4.13
2022-09-04T06:15:06.230Z,4.40
2022-09-04T06:18:18.535Z,4.43
2022-09-04T06:20:52.918Z,3.90
2022-09-04T06:23:47.833Z,3.35
2022-09-04T06:26:53.928Z,4.18
2022-09-04T06:29:24.925Z,4.40
2022-09-04T06:32:31.032Z,3.30
2022-09-04T06:35:47.270Z,3.05
2022-09-04T06:38:14.814Z,4.25
2022-09-04T06:41:09.453Z,3.80
2022-09-04T06:43:59.017Z,2.78
2022-09-04T06:46:45.727Z,4.57
2022-09-04T06:49:23.163Z,2.63
2022-09-04T06:52:03.348Z,6.32
2022-09-04T06:55:20.197Z,2.78
2022-09-04T06:58:29.383Z,4.15
2022-09-04T07:01:11.951Z,3.08
2022-09-04T07:04:03.805Z,4.43
2022-09-04T07:06:50.826Z,3.75
2022-09-04T07:09:26.274Z,2.47
2022-09-04T07:12:16.709Z,4.18
2022-09-04T07:14:50.566Z,6.00
2022-09-04T07:17:25.455Z,5.70
2022-09-04T07:20:41.137Z,3.20
2022-09-04T07:23:36.687Z,2.65
2022-09-04T07:26:27.391Z,5.55
2022-09-04T07:29:23.844Z,3.25
2022-09-04T07:32:02.732Z,2.58
2022-09-04T07:34:54.792Z,4.35
2022-09-04T07:37:28.013Z,1.85
2022-09-04T07:40:18.566Z,2.75
2022-09-04T07:43:14.034Z,6.22
2022-09-04T07:45:51.461Z,3.92
2022-09-04T07:48:42.292Z,1.98
2022-09-04T07:51:17.862Z,3.43
2022-09-04T07:54:13.483Z,3.28
2022-09-04T07:57:29.088Z,2.08
2022-09-04T08:00:10.469Z,7.60
2022-09-04T08:02:49.728Z,3.97
2022-09-04T08:06:03.520Z,2.88
2022-09-04T08:08:44.575Z,2.70
2022-09-04T08:11:45.731Z,4.15
2022-09-04T08:14:18.694Z,4.57
2022-09-04T08:17:24.668Z,2.17
2022-09-04T08:20:04.405Z,2.55
2022-09-04T08:22:53.290Z,4.03
2022-09-04T08:25:30.397Z,2.10
2022-09-04T08:28:00.856Z,2.80
2022-09-04T08:30:31.992Z,3.67
2022-09-04T08:33:31.632Z,3.53
2022-09-04T08:36:02.325Z,1.52
2022-09-04T08:38:30.094Z,3.63
2022-09-04T08:41:38.398Z,2.08
2022-09-04T08:44:33.782Z,1.48
2022-09-04T08:47:28.305Z,3.38
2022-09-04T08:50:18.252Z,3.03
2022-09-04T08:53:19.514Z,3.10
2022-09-04T08:55:56.184Z,2.53
2022-09-04T08:58:29.785Z,2.78
2022-09-04T09:01:03.473Z,3.08
2022-09-04T09:03:43.287Z,2.47
2022-09-04T09:06:45.079Z,3.13
2022-09-04T09:12:20.608Z,2.47
2022-09-04T09:15:15.717Z,1.60
2022-09-04T09:18:21.990Z,4.28
2022-09-04T09:20:54.647Z,4.10
2022-09-04T09:23:34.558Z,3.40
2022-09-04T09:26:09.606Z,5.55
2022-09-04T09:29:05.132Z,3.72
2022-09-04T09:31:51.513Z,4.97
2022-09-04T09:34:56.557Z,4.10
2022-09-04T09:37:47.508Z,3.40
2022-09-04T09:40:40.299Z,3.17
2022-09-04T09:43:30.387Z,6.30
2022-09-04T09:46:07.788Z,4.00
2022-09-04T09:48:41.776Z,3.25
2022-09-04T09:51:46.137Z,5.82
2022-09-04T09:54:41.537Z,3.13
2022-09-04T09:57:41.626Z,1.95
2022-09-04T10:00:20.018Z,4.50
2022-09-04T10:03:02.730Z,2.50
2022-09-04T10:06:04.369Z,3.92
2022-09-04T10:08:44.164Z,2.42
2022-09-04T10:11:29.954Z,2.70
2022-09-04T10:14:29.576Z,1.90
2022-09-04T10:17:10.709Z,3.67
2022-09-04T10:20:16.389Z,2.83
2022-09-04T10:23:05.372Z,2.80
2022-09-04T10:25:48.836Z,2.55
2022-09-04T10:28:48.846Z,4.35
2022-09-04T10:31:25.724Z,2.97
2022-09-04T10:34:27.308Z,1.92
2022-09-04T10:37:17.211Z,2.92
2022-09-04T10:40:22.173Z,3.10
2022-09-04T10:43:27.762Z,3.17
2022-09-04T10:46:16.054Z,7.00
2022-09-04T10:49:10.361Z,1.95
2022-09-04T10:51:53.240Z,1.95
2022-09-04T10:54:54.575Z,2.78
2022-09-04T10:57:37.532Z,2.22
2022-09-04T11:00:09.488Z,2.47
2022-09-04T11:03:03.505Z,3.88
2022-09-04T11:05:37.976Z,2.58
2022-09-04T11:08:43.164Z,2.90
2022-09-04T11:11:28.091Z,4.18
2022-09-04T11:14:28.473Z,3.58
2022-09-04T11:17:30.705Z,3.60
2022-09-04T11:20:29.171Z,2.65
2022-09-04T11:23:15.015Z,2.08
2022-09-04T11:25:44.538Z,4.25
2022-09-04T11:28:30.709Z,3.75
2022-09-04T11:31:07.225Z,3.22
2022-09-04T11:33:52.929Z,4.55
2022-09-04T11:36:26.345Z,2.92
2022-09-04T11:39:06.053Z,2.65
2022-09-04T11:41:51.940Z,5.13
2022-09-04T11:45:00.597Z,4.03
2022-09-04T11:47:43.128Z,11.32
2022-09-04T11:50:40.423Z,8.45
2022-09-04T11:53:30.302Z,5.63
2022-09-04T11:56:23.988Z,3.58
2022-09-04T11:58:58.716Z,2.30
2022-09-04T12:01:32.485Z,2.78
2022-09-04T12:04:37.774Z,3.97
2022-09-04T12:07:43.097Z,1.55
2022-09-04T12:10:35.233Z,2.00
2022-09-04T12:13:15.613Z,1.75
2022-09-04T12:15:46.988Z,1.88
2022-09-04T12:18:36.118Z,2.40
2022-09-04T12:21:22.433Z,1.88
2022-09-04T12:24:12.043Z,2.50
2022-09-04T12:26:59.977Z,2.20
2022-09-04T12:29:41.339Z,2.20
2022-09-04T12:32:36.870Z,2.08
2022-09-04T12:35:17.384Z,1.77
2022-09-04T12:38:12.026Z,1.95
2022-09-04T12:40:51.901Z,3.03
2022-09-04T12:43:42.906Z,3.83
2022-09-04T12:46:18.880Z,3.10
2022-09-04T12:49:11.889Z,2.90
2022-09-04T12:51:59.911Z,3.00
2022-09-04T12:54:52.188Z,1.63
2022-09-04T12:57:30.510Z,4.18
2022-09-04T13:00:12.302Z,2.55
2022-09-04T13:03:17.616Z,3.42
2022-09-04T13:06:22.473Z,1.70
2022-09-04T13:09:02.462Z,1.48
2022-09-04T13:12:01.297Z,1.65
2022-09-04T13:14:59.890Z,1.42
2022-09-04T13:17:36.593Z,5.30
2022-09-04T13:20:20.952Z,3.08
2022-09-04T13:23:12.085Z,3.42
2022-09-04T13:25:52.573Z,4.68
2022-09-04T13:28:30.567Z,1.85
2022-09-04T13:31:18.773Z,2.28
2022-09-04T13:34:07.737Z,3.08
2022-09-04T13:36:49.624Z,2.85
2022-09-04T13:39:20.286Z,4.53
2022-09-04T13:42:03.225Z,4.45
2022-09-04T13:44:52.986Z,3.92
2022-09-04T13:47:22.901Z,3.22
2022-09-04T13:50:08.672Z,5.65
2022-09-04T13:52:39.548Z,2.10
2022-09-04T13:55:27.276Z,2.90
2022-09-04T13:58:14.100Z,2.80
2022-09-04T14:00:49.540Z,2.72
2022-09-04T14:03:50.465Z,1.95
2022-09-04T14:06:20.111Z,2.75
2022-09-04T14:09:04.794Z,2.40
2022-09-04T14:11:37.538Z,2.13
2022-09-04T14:14:37.665Z,1.33
2022-09-04T14:17:07.129Z,3.00
2022-09-04T14:19:56.809Z,5.18
2022-09-04T14:22:28.310Z,1.35
2022-09-04T14:25:11.880Z,2.17
2022-09-04T14:27:51.761Z,1.88
2022-09-04T14:30:23.196Z,2.72
2022-09-04T14:33:19.485Z,1.88
2022-09-04T14:36:15.125Z,3.65
2022-09-04T14:39:04.842Z,5.28
2022-09-04T14:41:36.267Z,1.90
2022-09-04T14:44:20.584Z,5.30
2022-09-04T14:47:07.401Z,2.15
2022-09-04T14:49:47.211Z,3.13
2022-09-04T14:52:19.868Z,2.85
2022-09-04T14:54:50.956Z,4.88
2022-09-04T14:57:21.740Z,7.32
2022-09-04T15:00:03.231Z,4.10
2022-09-04T15:05:34.486Z,5.28
2022-09-04T15:08:04.050Z,7.88
2022-09-04T15:10:54.440Z,8.70
2022-09-04T15:13:28.106Z,8.25
2022-09-04T15:16:11.274Z,12.57
2022-09-04T15:18:42.094Z,5.32
2022-09-04T15:21:31.522Z,3.63
2022-09-04T15:24:17.912Z,2.42
2022-09-04T15:27:20.189Z,2.67
2022-09-04T15:29:53.881Z,1.80
2022-09-04T15:32:22.954Z,1.85
2022-09-04T15:34:50.888Z,2.47
2022-09-04T15:37:26.811Z,4.25
2022-09-04T15:40:22.210Z,5.18
2022-09-04T15:43:01.740Z,6.47
2022-09-04T15:45:50.681Z,4.95
2022-09-04T15:48:38.476Z,4.40
2022-09-04T15:51:19.053Z,4.47
2022-09-04T15:54:12.050Z,7.65
2022-09-04T15:56:45.548Z,6.03
2022-09-04T15:59:20.086Z,7.75
2022-09-04T16:02:07.789Z,8.10
2022-09-04T16:04:38.090Z,7.40
2022-09-04T16:07:20.597Z,2.97
2022-09-04T16:09:56.574Z,4.05
2022-09-04T16:12:35.196Z,4.32
2022-09-04T16:15:05.776Z,4.90
2022-09-04T16:17:40.417Z,5.70
2022-09-04T16:20:14.376Z,5.43
2022-09-04T16:23:00.895Z,3.33
2022-09-04T16:25:29.645Z,3.65
2022-09-04T16:28:19.247Z,3.90
2022-09-04T16:30:57.224Z,4.22
2022-09-04T16:33:51.664Z,4.90
2022-09-04T16:36:28.561Z,5.65
2022-09-04T16:39:00.348Z,3.05
2022-09-04T16:41:51.252Z,7.80
2022-09-04T16:44:26.390Z,5.93
2022-09-04T16:47:03.229Z,9.40
2022-09-04T16:50:26.332Z,12.48
2022-09-04T16:53:14.171Z,6.82
2022-09-04T16:56:36.897Z,15.73
2022-09-04T16:59:19.580Z,9.48
2022-09-04T17:01:54.257Z,12.02
2022-09-04T17:04:27.026Z,10.57
2022-09-04T17:07:13.235Z,9.52
2022-09-04T17:09:57.706Z,6.68
2022-09-04T17:12:34.311Z,14.73
2022-09-04T17:15:07.054Z,7.25
2022-09-04T17:17:41.118Z,8.60
2022-09-04T17:20:10.291Z,8.70
2022-09-04T17:29:01.317Z,7.00
2022-09-04T17:29:10.499Z,6.97
2022-09-04T17:31:52.248Z,9.93
2022-09-04T17:40:43.086Z,10.57
2022-09-04T17:40:47.085Z,7.88
2022-09-04T17:41:36.311Z,7.90
2022-09-04T17:44:04.448Z,8.90
2022-09-04T17:46:40.046Z,5.30
2022-09-04T17:49:20.620Z,9.20
2022-09-04T17:52:00.064Z,7.90
2022-09-04T17:54:32.616Z,9.88
2022-09-04T17:57:37.289Z,7.25
2022-09-04T18:00:08.025Z,8.13
2022-09-04T18:02:45.796Z,9.20
2022-09-04T18:05:26.372Z,9.00
2022-09-04T18:08:09.269Z,6.85
2022-09-04T18:10:59.133Z,8.07
2022-09-04T18:14:02.315Z,8.00
2022-09-04T18:17:11.640Z,8.80
2022-09-04T18:19:44.593Z,5.55
2022-09-04T18:23:08.722Z,8.07
2022-09-04T18:25:42.601Z,8.40
2022-09-04T18:28:25.708Z,8.93
2022-09-04T18:37:05.560Z,13.98
2022-09-04T18:37:24.170Z,9.35
2022-09-04T18:37:44.246Z,10.98
2022-09-04T18:40:11.790Z,7.25
2022-09-04T18:50:29.724Z,6.28
2022-09-04T18:50:36.969Z,10.65
2022-09-04T18:50:43.765Z,12.07
2022-09-04T18:51:51.324Z,8.63
2022-09-04T18:54:42.516Z,10.40
2022-09-04T18:57:33.030Z,11.02
2022-09-04T19:00:08.427Z,9.00
2022-09-04T19:02:52.808Z,9.77
2022-09-04T19:05:21.983Z,10.93
2022-09-04T19:07:57.135Z,8.95
2022-09-04T19:10:32.458Z,10.95
2022-09-04T19:13:08.938Z,11.38
2022-09-04T19:15:45.520Z,15.02
2022-09-04T19:18:18.620Z,21.02
2022-09-04T19:20:50.846Z,16.92
2022-09-04T19:23:38.186Z,15.77
2022-09-04T19:26:21.156Z,16.17
2022-09-04T19:29:00.600Z,12.63
2022-09-04T19:31:34.231Z,14.00
2022-09-04T19:34:18.998Z,15.98
2022-09-04T19:36:55.455Z,23.58
2022-09-04T19:46:05.417Z,21.23
2022-09-04T19:46:07.372Z,34.57
2022-09-04T19:46:27.748Z,26.13
2022-09-04T19:50:57.135Z,23.92
2022-09-04T19:53:34.224Z,26.48
2022-09-04T19:55:24.545Z,22.92
2022-09-04T19:58:09.543Z,22.38
2022-09-04T20:00:50.009Z,25.13
2022-09-04T20:03:29.886Z,25.75
2022-09-04T20:06:20.714Z,17.67
2022-09-04T20:08:51.840Z,16.58
2022-09-04T20:11:34.592Z,15.05
2022-09-04T20:14:28.170Z,9.77
2022-09-04T20:17:24.299Z,8.57
2022-09-04T20:19:53.377Z,9.65
2022-09-04T20:22:59.064Z,11.93
2022-09-04T20:25:52.030Z,15.52
2022-09-04T20:28:30.538Z,12.30
2022-09-04T20:31:33.324Z,12.25
2022-09-04T20:34:10.186Z,11.45
2022-09-04T20:36:38.637Z,13.35
2022-09-04T20:39:10.236Z,15.82
2022-09-04T20:41:47.616Z,15.60
2022-09-04T20:44:15.112Z,16.92
2022-09-04T20:49:39.019Z,11.88
2022-09-04T20:52:58.244Z,14.55
2022-09-04T20:53:29.599Z,11.40
2022-09-04T20:58:02.769Z,11.77
2022-09-04T21:03:17.248Z,14.65
2022-09-04T21:03:18.656Z,15.18
2022-09-04T21:05:49.900Z,22.75
2022-09-04T21:09:10.507Z,18.83
2022-09-04T21:11:44.982Z,17.23
2022-09-04T21:14:18.937Z,13.82
2022-09-04T21:17:33.540Z,13.35
2022-09-04T21:20:13.914Z,14.43
2022-09-04T21:22:50.282Z,15.75
2022-09-04T21:25:27.977Z,15.98
2022-09-04T21:28:24.931Z,14.32
2022-09-04T21:31:26.749Z,21.58
2022-09-04T21:34:24.130Z,14.25
2022-09-04T21:37:00.896Z,14.13
2022-09-04T21:39:58.250Z,16.80
2022-09-04T21:42:47.577Z,23.20
2022-09-04T21:45:56.651Z,17.90
2022-09-04T21:48:41.945Z,18.33
2022-09-04T21:51:28.444Z,22.48
2022-09-04T21:54:20.480Z,16.05
2022-09-04T22:02:25.256Z,19.23
2022-09-04T22:02:37.032Z,16.60
2022-09-04T22:03:39.576Z,16.73
2022-09-04T22:06:19.041Z,17.60
2022-09-04T22:13:29.894Z,24.08
2022-09-04T22:13:38.391Z,17.15
2022-09-04T22:16:04.588Z,19.00
2022-09-04T22:18:59.586Z,18.63
2022-09-04T22:22:09.016Z,24.08
2022-09-04T22:25:14.154Z,18.77
2022-09-04T22:28:09.811Z,17.23
2022-09-04T22:30:59.698Z,19.73
2022-09-04T22:33:32.804Z,16.17
2022-09-04T22:36:33.959Z,19.17
2022-09-04T22:39:13.189Z,18.85
2022-09-04T22:41:53.725Z,19.02
2022-09-04T22:44:45.957Z,20.10
2022-09-04T22:47:31.595Z,17.25
2022-09-04T22:50:17.838Z,19.77
2022-09-04T22:53:10.180Z,18.00
2022-09-04T22:56:22.868Z,18.95
2022-09-04T22:59:20.299Z,21.25
2022-09-04T23:02:16.309Z,19.55
2022-09-04T23:04:46.629Z,22.27
2022-09-04T23:13:54.218Z,17.70
2022-09-04T23:13:56.458Z,21.02
2022-09-04T23:14:06.513Z,17.35
2022-09-04T23:17:08.940Z,20.95
2022-09-04T23:22:46.108Z,20.38
2022-09-04T23:26:46.045Z,21.25
2022-09-04T23:26:46.248Z,21.20
2022-09-04T23:29:41.163Z,18.90
2022-09-04T23:32:28.268Z,21.23
2022-09-04T23:35:36.288Z,19.30
2022-09-04T23:38:03.769Z,19.20
2022-09-04T23:40:44.510Z,21.85
2022-09-04T23:43:33.414Z,17.98
2022-09-04T23:46:08.371Z,22.67
2022-09-04T23:48:48.717Z,21.60
2022-09-04T23:51:40.923Z,21.42
2022-09-04T23:54:45.994Z,21.67
2022-09-04T23:57:26.617Z,20.88
